Rapports des METAR proches

 

LFAQ - Bray, France
Distance from station: SSO 19km
Mise à jour: 13/11/2019 11:00
Clair
Clair
 Vent OSO
Vent: OSO 17 km/h
Température: 8°C
Température au vent: 5°C
Point de rosée: 7°C
Humidité: 93%
Baromètre: 1003 hPa
Résumé: Clair
Visibility: greater than 10 km
2019/11/13 10:00 LFAQ 131000Z AUTO 24009KT CAVOK 08/07 Q1003 NOSIG
LFQQ - Lille/Lesquin, France
Distance from station: NNE 53km
Mise à jour: 13/11/2019 11:00
Clair
Clair
 Vent OSO
Vent: OSO 19 km/h
Température: 9°C
Température au vent: 6°C
Point de rosée: 5°C
Humidité: 76%
Baromètre: 1002 hPa
Résumé: Clair
Visibility: greater than 10 km
2019/11/13 10:00 LFQQ 131000Z AUTO 25010KT CAVOK 09/05 Q1002 TEMPO BKN010
EBCV - Chievres Ab, Belgium
Distance from station: NE 88km
Mise à jour: 13/11/2019 11:25
Très nuageux
Très nuageux
 Vent SO
Vent: SO 15 km/h
Température: 7°C
Température au vent: 4°C
Point de rosée: 6°C
Humidité: 93%
Baromètre: 1002 hPa
Clouds: Très nuageux
Visibility: 10 km
Cloud details: Quelques nuages 1219 m
Très nuageux 1707 m
2019/11/13 10:25 EBCV 131025Z AUTO 23008KT 9999 FEW040/// BKN056/// 07/06 Q1002 BLU